Terminal Aerodrome Forecast
Issued by NWS

Home | Current Version | Previous Version | Text Only | Print | Product List | Glossary On
Versions: 1 2 3 4 5 6 7 8 9 10 11 12 13 14 15 16 17 18 19 20 21 22 23 24 25 26 27 28 29 30
000
FTUS45 KBOI 211125 AAA
TAFMYL
TAF AMD
KMYL 211125Z 2111/2212 27006KT 4SM RA FEW008 BKN018 OVC035
      TEMPO 2112/2114 VRB04KT 6SM -RA SCT018 OVC035
     FM212000 25012KT P6SM -SHRA SCT040 BKN060
     FM220000 VRB04KT P6SM VCSH SCT060
     FM220300 VRB02KT P6SM BKN060
      TEMPO 2210/2212 00000KT 6SM BR SCT005=

USA.gov is the U.S. government's official web portal to all federal, state and local government web resources and services.